createdAt,value
2019-04-21T00:01:52.212Z,40.95
2019-04-21T00:02:50.932Z,40.56
2019-04-21T00:03:55.579Z,41.16
2019-04-21T00:05:14.119Z,40.45
2019-04-21T00:06:11.999Z,40.97
2019-04-21T00:07:10.418Z,40.77
2019-04-21T00:08:19.401Z,40.77
2019-04-21T00:10:15.993Z,40.97
2019-04-21T00:12:12.425Z,40.77
2019-04-21T00:13:08.986Z,40.89
2019-04-21T00:14:03.748Z,40.87
2019-04-21T00:15:02.017Z,41.68
2019-04-21T00:15:57.314Z,40.67
2019-04-21T00:16:58.364Z,40.69
2019-04-21T00:17:54.782Z,41.40
2019-04-21T00:18:59.922Z,41.50
2019-04-21T00:19:55.414Z,42.61
2019-04-21T00:20:55.211Z,42.11
2019-04-21T00:21:55.422Z,41.50
2019-04-21T00:23:04.870Z,41.50
2019-04-21T00:24:05.882Z,41.50
2019-04-21T00:25:07.736Z,41.91
2019-04-21T00:26:02.026Z,41.50
2019-04-21T00:27:12.513Z,41.91
2019-04-21T00:28:13.976Z,41.40
2019-04-21T00:29:21.248Z,41.80
2019-04-21T00:30:10.936Z,41.50
2019-04-21T00:31:12.843Z,41.80
2019-04-21T00:32:08.706Z,41.60
2019-04-21T00:32:59.946Z,41.82
2019-04-21T00:33:51.967Z,41.01
2019-04-21T00:34:56.598Z,41.70
2019-04-21T00:35:59.313Z,41.11
2019-04-21T00:37:03.078Z,41.11
2019-04-21T00:38:14.873Z,40.81
2019-04-21T00:39:20.960Z,41.72
2019-04-21T00:40:09.470Z,41.82
2019-04-21T00:41:15.562Z,41.72
2019-04-21T00:42:12.862Z,41.93
2019-04-21T00:43:12.257Z,41.72
2019-04-21T00:44:04.749Z,41.52
2019-04-21T00:45:09.766Z,41.72
2019-04-21T00:45:59.925Z,41.54
2019-04-21T00:47:01.968Z,41.42
2019-04-21T00:48:10.054Z,41.11
2019-04-21T00:49:08.511Z,41.24
2019-04-21T00:50:12.735Z,41.54
2019-04-21T00:52:24.642Z,41.94
2019-04-21T00:53:11.747Z,41.33
2019-04-21T00:54:18.053Z,41.94
2019-04-21T00:55:23.087Z,42.17
2019-04-21T00:56:15.625Z,41.74
2019-04-21T00:57:19.626Z,42.88
2019-04-21T00:58:18.416Z,41.05
2019-04-21T00:59:13.830Z,41.25
2019-04-21T01:01:09.993Z,42.27
2019-04-21T01:02:10.530Z,42.17
2019-04-21T01:03:14.712Z,43.18
2019-04-21T01:04:09.726Z,42.98
2019-04-21T01:05:16.583Z,42.88
2019-04-21T01:06:16.319Z,43.18
2019-04-21T01:07:12.469Z,43.18
2019-04-21T01:08:09.411Z,42.98
2019-04-21T01:09:09.410Z,42.47
2019-04-21T01:10:05.196Z,42.88
2019-04-21T01:11:15.569Z,42.88
2019-04-21T01:12:12.556Z,43.20
2019-04-21T01:13:18.386Z,43.61
2019-04-21T01:14:16.618Z,43.20
2019-04-21T01:15:22.670Z,44.02
2019-04-21T01:16:13.806Z,43.71
2019-04-21T01:17:14.561Z,43.53
2019-04-21T01:18:09.270Z,43.43
2019-04-21T01:19:13.936Z,43.93
2019-04-21T01:20:01.755Z,43.53
2019-04-21T01:20:50.078Z,44.65
2019-04-21T01:21:49.029Z,44.65
2019-04-21T01:22:49.023Z,44.75
2019-04-21T01:23:49.007Z,44.85
2019-04-21T01:25:01.328Z,45.18
2019-04-21T01:26:05.218Z,44.67
2019-04-21T01:27:02.343Z,44.97
2019-04-21T01:28:03.716Z,44.87
2019-04-21T01:29:08.663Z,44.77
2019-04-21T01:30:14.183Z,45.89
2019-04-21T01:31:11.119Z,45.48
2019-04-21T01:32:18.754Z,45.68
2019-04-21T01:33:12.378Z,45.99
2019-04-21T01:34:08.404Z,45.89
2019-04-21T01:35:10.134Z,46.32
2019-04-21T01:36:09.428Z,46.22
2019-04-21T01:37:04.079Z,46.62
2019-04-21T01:38:10.933Z,46.24
2019-04-21T01:39:13.709Z,46.14
2019-04-21T01:40:16.894Z,47.05
2019-04-21T01:41:17.980Z,47.05
2019-04-21T01:42:09.513Z,47.46
2019-04-21T01:43:07.776Z,47.97
2019-04-21T01:44:06.213Z,48.38
2019-04-21T01:45:12.076Z,48.18
2019-04-21T01:46:11.242Z,49.19
2019-04-21T01:47:07.111Z,48.48
2019-04-21T01:48:06.452Z,49.32
2019-04-21T01:49:04.441Z,49.52
2019-04-21T01:50:01.576Z,49.93
2019-04-21T01:51:05.391Z,49.62
2019-04-21T01:52:22.206Z,49.62
2019-04-21T01:53:15.473Z,49.01
2019-04-21T01:54:15.993Z,49.21
2019-04-21T01:55:13.833Z,49.11
2019-04-21T01:56:11.766Z,49.32
2019-04-21T01:57:07.555Z,49.93
2019-04-21T01:58:02.068Z,49.83
2019-04-21T01:58:59.240Z,49.83
2019-04-21T02:00:02.689Z,50.13
2019-04-21T02:01:04.710Z,49.83
2019-04-21T02:02:11.008Z,49.93
2019-04-21T02:03:30.693Z,49.21
2019-04-21T02:04:06.741Z,49.93
2019-04-21T02:05:17.428Z,49.65
2019-04-21T02:06:18.431Z,49.54
2019-04-21T02:07:13.101Z,49.75
2019-04-21T02:08:05.107Z,49.98
2019-04-21T02:09:10.170Z,49.98
2019-04-21T02:10:11.028Z,50.38
2019-04-21T02:11:12.635Z,49.90
2019-04-21T02:12:14.781Z,50.89
2019-04-21T02:13:09.059Z,51.84
2019-04-21T02:14:09.928Z,51.22
2019-04-21T02:15:11.105Z,51.63
2019-04-21T02:16:13.772Z,51.93
2019-04-21T02:17:14.504Z,52.25
2019-04-21T02:18:10.555Z,51.76
2019-04-21T02:20:02.755Z,52.37
2019-04-21T02:20:57.946Z,52.06
2019-04-21T02:22:06.369Z,52.37
2019-04-21T02:24:17.096Z,52.37
2019-04-21T02:25:18.206Z,51.96
2019-04-21T02:26:09.724Z,52.19
2019-04-21T02:27:14.952Z,52.37
2019-04-21T02:28:12.309Z,51.98
2019-04-21T02:29:19.574Z,52.37
2019-04-21T02:30:24.790Z,52.06
2019-04-21T02:31:24.807Z,51.96
2019-04-21T02:32:38.956Z,52.37
2019-04-21T02:33:26.147Z,52.04
2019-04-21T02:34:16.123Z,52.37
2019-04-21T02:35:40.695Z,51.55
2019-04-21T02:38:34.298Z,51.43
2019-04-21T02:40:22.338Z,51.12
2019-04-21T02:41:26.479Z,51.22
2019-04-21T02:42:18.703Z,51.12
2019-04-21T02:43:34.299Z,51.22
2019-04-21T02:44:30.117Z,50.81
2019-04-21T02:45:25.141Z,50.51
2019-04-21T02:46:23.894Z,49.90
2019-04-21T02:47:31.209Z,50.31
2019-04-21T02:48:19.289Z,50.71
2019-04-21T02:51:21.953Z,49.69
2019-04-21T02:52:39.376Z,49.69
2019-04-21T02:53:45.800Z,50.31
2019-04-21T02:54:41.713Z,49.59
2019-04-21T02:55:17.874Z,50.00
2019-04-21T02:56:27.861Z,49.87
2019-04-21T02:57:17.568Z,50.00
2019-04-21T02:58:32.002Z,50.00
2019-04-21T03:02:30.951Z,49.79
2019-04-21T03:03:21.409Z,49.90
2019-04-21T03:04:24.771Z,49.38
2019-04-21T03:05:36.416Z,50.41
2019-04-21T03:06:27.026Z,49.69
2019-04-21T03:08:32.157Z,51.02
2019-04-21T03:09:24.367Z,51.22
2019-04-21T03:10:26.722Z,50.71
2019-04-21T03:11:14.089Z,51.22
2019-04-21T03:13:21.846Z,52.34
2019-04-21T03:14:31.059Z,52.45
2019-04-21T03:15:23.423Z,51.93
2019-04-21T03:16:25.114Z,52.17
2019-04-21T03:17:24.799Z,52.04
2019-04-21T03:18:27.990Z,53.08
2019-04-21T03:20:29.245Z,53.19
2019-04-21T03:22:20.698Z,53.90
2019-04-21T03:24:17.684Z,54.13
2019-04-21T03:26:36.213Z,53.83
2019-04-21T03:28:22.649Z,54.54
2019-04-21T03:29:19.750Z,54.85
2019-04-21T03:30:26.353Z,54.74
2019-04-21T03:31:42.224Z,53.52
2019-04-21T03:32:50.647Z,54.03
2019-04-21T03:34:02.487Z,53.85
2019-04-21T03:36:41.390Z,53.85
2019-04-21T03:37:23.142Z,53.31
2019-04-21T03:38:18.873Z,53.52
2019-04-21T03:39:21.663Z,52.93
2019-04-21T03:40:18.634Z,53.23
2019-04-21T03:41:18.904Z,53.13
2019-04-21T03:42:27.044Z,54.05
2019-04-21T03:43:20.881Z,53.75
2019-04-21T03:45:25.196Z,54.36
2019-04-21T03:46:27.932Z,54.77
2019-04-21T03:47:23.503Z,55.30
2019-04-21T03:48:17.318Z,55.79
2019-04-21T03:50:22.688Z,57.04
2019-04-21T03:51:21.545Z,57.25
2019-04-21T03:52:19.439Z,57.35
2019-04-21T03:53:22.555Z,57.25
2019-04-21T03:54:16.123Z,57.25
2019-04-21T03:57:50.492Z,57.38
2019-04-21T03:58:41.903Z,57.35
2019-04-21T03:59:26.419Z,57.45
2019-04-21T04:01:35.172Z,57.58
2019-04-21T04:02:36.610Z,58.09
2019-04-21T04:05:45.299Z,57.07
2019-04-21T04:06:25.975Z,57.28
2019-04-21T04:07:44.104Z,56.76
2019-04-21T04:08:44.181Z,56.56
2019-04-21T04:11:00.142Z,55.74
2019-04-21T04:11:43.775Z,55.74
2019-04-21T04:12:28.552Z,55.43
2019-04-21T04:13:37.331Z,55.13
2019-04-21T04:14:33.485Z,55.13
2019-04-21T04:15:45.415Z,55.43
2019-04-21T04:16:26.901Z,54.92
2019-04-21T04:17:27.037Z,55.33
2019-04-21T04:18:39.384Z,54.51
2019-04-21T04:19:33.907Z,54.72
2019-04-21T04:20:33.268Z,53.90
2019-04-21T04:21:37.166Z,54.51
2019-04-21T04:22:31.344Z,53.98
2019-04-21T04:23:34.020Z,54.21
2019-04-21T04:24:34.213Z,54.92
2019-04-21T04:25:27.422Z,54.69
2019-04-21T04:26:31.445Z,54.39
2019-04-21T04:27:49.489Z,54.80
2019-04-21T04:29:24.586Z,54.39
2019-04-21T04:30:32.023Z,54.69
2019-04-21T04:32:28.536Z,54.18
2019-04-21T04:33:46.091Z,53.67
2019-04-21T04:34:27.551Z,54.18
2019-04-21T04:35:40.531Z,53.77
2019-04-21T04:37:32.106Z,54.69
2019-04-21T04:38:33.954Z,54.59
2019-04-21T04:41:32.911Z,55.10
2019-04-21T04:42:39.214Z,54.39
2019-04-21T04:43:31.081Z,55.30
2019-04-21T04:44:46.556Z,54.80
2019-04-21T04:45:37.331Z,55.10
2019-04-21T04:46:29.003Z,54.90
2019-04-21T04:47:24.350Z,55.10
2019-04-21T04:48:28.797Z,54.90
2019-04-21T04:49:43.443Z,55.21
2019-04-21T04:50:35.910Z,55.10
2019-04-21T04:52:34.515Z,55.21
2019-04-21T04:54:39.878Z,55.21
2019-04-21T04:55:26.113Z,55.10
2019-04-21T04:56:31.454Z,55.10
2019-04-21T04:57:45.173Z,55.21
2019-04-21T04:58:56.198Z,55.62
2019-04-21T05:01:37.688Z,56.12
2019-04-21T05:02:33.690Z,56.53
2019-04-21T05:03:39.871Z,56.43
2019-04-21T05:04:37.455Z,56.94
2019-04-21T05:05:29.939Z,57.15
2019-04-21T05:08:42.284Z,57.25
2019-04-21T05:10:41.105Z,56.97
2019-04-21T05:11:39.798Z,56.94
2019-04-21T05:12:32.517Z,56.87
2019-04-21T05:13:26.001Z,56.63
2019-04-21T05:14:33.952Z,57.04
2019-04-21T05:15:23.953Z,56.94
2019-04-21T05:17:38.598Z,57.04
2019-04-21T05:18:35.087Z,57.25
2019-04-21T05:20:45.868Z,57.45
2019-04-21T05:22:22.129Z,57.22
2019-04-21T05:23:18.226Z,56.74
2019-04-21T05:24:18.437Z,56.30
2019-04-21T05:25:13.485Z,56.51
2019-04-21T05:26:09.817Z,56.71
2019-04-21T05:27:12.494Z,56.51
2019-04-21T05:28:11.328Z,56.61
2019-04-21T05:29:10.987Z,56.92
2019-04-21T05:30:24.874Z,56.71
2019-04-21T05:31:20.865Z,56.40
2019-04-21T05:32:22.927Z,56.81
2019-04-21T05:33:20.849Z,56.79
2019-04-21T05:34:18.994Z,56.61
2019-04-21T05:35:20.066Z,56.38
2019-04-21T05:36:20.984Z,56.07
2019-04-21T05:37:21.697Z,56.07
2019-04-21T05:38:16.765Z,55.76
2019-04-21T05:39:14.719Z,56.07
2019-04-21T05:40:15.750Z,55.87
2019-04-21T05:41:10.068Z,55.46
2019-04-21T05:42:04.959Z,55.15
2019-04-21T05:43:26.371Z,55.46
2019-04-21T05:44:28.035Z,55.36
2019-04-21T05:45:25.393Z,55.74
2019-04-21T05:46:20.984Z,55.66
2019-04-21T05:48:23.199Z,55.63
2019-04-21T05:49:14.057Z,55.63
2019-04-21T05:50:20.708Z,55.63
2019-04-21T05:51:14.672Z,55.43
2019-04-21T05:52:14.542Z,55.00
2019-04-21T05:53:26.755Z,54.90
2019-04-21T05:54:29.851Z,55.10
2019-04-21T05:55:24.476Z,54.79
2019-04-21T05:56:22.973Z,55.20
2019-04-21T05:57:15.002Z,55.00
2019-04-21T05:58:12.069Z,54.46
2019-04-21T05:59:13.734Z,53.75
2019-04-21T06:00:31.012Z,54.26
2019-04-21T06:01:31.466Z,54.26
2019-04-21T06:02:24.328Z,54.24
2019-04-21T06:03:29.299Z,54.24
2019-04-21T06:04:26.498Z,54.54
2019-04-21T06:07:25.555Z,53.31
2019-04-21T06:08:17.918Z,53.59
2019-04-21T06:09:22.536Z,53.80
2019-04-21T06:10:20.454Z,53.70
2019-04-21T06:12:23.534Z,53.50
2019-04-21T06:13:26.844Z,53.67
2019-04-21T06:14:21.708Z,53.57
2019-04-21T06:15:19.659Z,52.96
2019-04-21T06:16:21.693Z,53.06
2019-04-21T06:17:25.552Z,53.06
2019-04-21T06:18:27.047Z,53.88
2019-04-21T06:19:29.378Z,52.45
2019-04-21T06:20:21.197Z,52.94
2019-04-21T06:21:16.465Z,53.57
2019-04-21T06:23:21.339Z,52.94
2019-04-21T06:24:15.724Z,52.96
2019-04-21T06:25:46.468Z,52.83
2019-04-21T06:27:27.610Z,53.24
2019-04-21T06:28:21.053Z,53.24
2019-04-21T06:29:23.650Z,53.02
2019-04-21T06:30:19.159Z,52.61
2019-04-21T06:31:33.868Z,53.22
2019-04-21T06:32:30.310Z,53.42
2019-04-21T06:33:19.905Z,52.30
2019-04-21T06:34:25.046Z,52.28
2019-04-21T06:38:43.309Z,52.25
2019-04-21T06:39:31.928Z,51.95
2019-04-21T06:40:37.357Z,52.35
2019-04-21T06:41:32.652Z,51.95
2019-04-21T06:42:25.703Z,51.75
2019-04-21T06:43:37.274Z,52.03
2019-04-21T06:44:35.182Z,51.84
2019-04-21T06:45:36.595Z,52.23
2019-04-21T06:46:40.733Z,52.03
2019-04-21T06:47:39.451Z,51.42
2019-04-21T06:48:32.712Z,51.42
2019-04-21T06:49:27.588Z,51.31
2019-04-21T06:50:30.230Z,51.39
2019-04-21T06:53:39.741Z,51.39
2019-04-21T06:54:34.152Z,51.39
2019-04-21T06:55:26.822Z,50.86
2019-04-21T06:56:36.332Z,50.96
2019-04-21T06:58:26.204Z,50.86
2019-04-21T06:59:29.390Z,51.06
2019-04-21T07:00:24.698Z,50.84
2019-04-21T07:01:31.290Z,50.53
2019-04-21T07:02:43.753Z,50.43
2019-04-21T07:03:54.977Z,50.63
2019-04-21T07:04:29.599Z,50.40
2019-04-21T07:05:38.859Z,50.31
2019-04-21T07:06:31.920Z,50.51
2019-04-21T07:07:27.926Z,50.51
2019-04-21T07:09:45.408Z,50.59
2019-04-21T07:10:26.627Z,51.29
2019-04-21T07:11:27.054Z,50.48
2019-04-21T07:12:30.743Z,50.38
2019-04-21T07:13:25.121Z,50.08
2019-04-21T07:14:32.072Z,49.57
2019-04-21T07:15:31.796Z,49.65
2019-04-21T07:16:37.165Z,49.65
2019-04-21T07:17:29.422Z,49.65
2019-04-21T07:18:37.101Z,49.24
2019-04-21T07:20:29.777Z,49.22
2019-04-21T07:21:27.601Z,49.22
2019-04-21T07:22:35.407Z,49.32
2019-04-21T07:23:32.284Z,49.32
2019-04-21T07:24:31.532Z,50.71
2019-04-21T07:25:32.859Z,49.19
2019-04-21T07:26:31.125Z,49.50
2019-04-21T07:27:29.190Z,49.30
2019-04-21T07:28:31.951Z,49.50
2019-04-21T07:29:34.853Z,49.78
2019-04-21T07:30:31.721Z,49.38
2019-04-21T07:31:31.717Z,49.38
2019-04-21T07:32:27.399Z,49.27
2019-04-21T07:33:50.913Z,49.05
2019-04-21T07:34:36.398Z,49.35
2019-04-21T07:35:28.580Z,49.25
2019-04-21T07:36:38.135Z,49.45
2019-04-21T07:37:33.213Z,48.44
2019-04-21T07:38:31.407Z,47.51
2019-04-21T07:39:22.654Z,48.02
2019-04-21T07:40:23.197Z,47.11
2019-04-21T07:41:22.232Z,47.51
2019-04-21T07:42:23.856Z,46.48
2019-04-21T07:43:20.442Z,46.68
2019-04-21T07:44:25.708Z,46.88
2019-04-21T07:45:23.018Z,46.98
2019-04-21T07:46:19.662Z,46.56
2019-04-21T07:47:29.509Z,45.95
2019-04-21T07:48:24.686Z,46.17
2019-04-21T07:49:25.136Z,46.45
2019-04-21T07:50:28.607Z,46.56
2019-04-21T07:51:33.957Z,46.45
2019-04-21T07:52:28.568Z,46.56
2019-04-21T07:53:36.745Z,46.84
2019-04-21T07:54:54.072Z,46.53
2019-04-21T07:56:11.923Z,46.43
2019-04-21T07:57:23.467Z,45.93
2019-04-21T07:59:39.802Z,46.01
2019-04-21T08:00:38.984Z,44.09
2019-04-21T08:01:45.342Z,44.49
2019-04-21T08:02:27.461Z,44.29
2019-04-21T08:03:30.036Z,45.07
2019-04-21T08:04:46.645Z,45.38
2019-04-21T08:05:24.844Z,45.28
2019-04-21T08:06:33.644Z,44.67
2019-04-21T08:07:32.311Z,44.47
2019-04-21T08:08:21.122Z,44.37
2019-04-21T08:09:27.553Z,43.44
2019-04-21T08:10:23.849Z,43.77
2019-04-21T08:11:21.023Z,43.04
2019-04-21T08:12:22.949Z,44.05
2019-04-21T08:13:38.213Z,43.34
2019-04-21T08:14:33.600Z,43.24
2019-04-21T08:15:27.669Z,43.74
2019-04-21T08:17:23.419Z,43.02
2019-04-21T08:18:28.656Z,42.52
2019-04-21T08:19:29.448Z,42.61
2019-04-21T08:20:24.773Z,42.72
2019-04-21T08:21:30.844Z,42.52
2019-04-21T08:22:30.723Z,42.72
2019-04-21T08:23:25.638Z,41.61
2019-04-21T08:24:27.434Z,41.49
2019-04-21T08:25:27.398Z,40.78
2019-04-21T08:26:24.269Z,41.59
2019-04-21T08:27:29.876Z,41.19
2019-04-21T08:28:25.953Z,42.19
2019-04-21T08:30:43.201Z,41.79
2019-04-21T08:31:35.511Z,41.49
2019-04-21T08:32:36.491Z,41.57
2019-04-21T08:33:31.970Z,41.19
2019-04-21T08:34:28.363Z,40.97
2019-04-21T08:37:26.027Z,40.55
2019-04-21T08:38:28.480Z,39.03
2019-04-21T08:39:33.123Z,40.04
2019-04-21T08:40:31.553Z,38.83
2019-04-21T08:41:23.068Z,39.14
2019-04-21T08:42:25.412Z,39.43
2019-04-21T08:43:39.351Z,39.12
2019-04-21T08:44:33.929Z,39.12
2019-04-21T08:45:28.153Z,39.12
2019-04-21T08:46:27.299Z,38.81
2019-04-21T08:47:25.584Z,38.81
2019-04-21T08:48:23.979Z,38.92
2019-04-21T08:49:26.771Z,38.49
2019-04-21T08:50:26.609Z,38.90
2019-04-21T08:51:49.701Z,39.10
2019-04-21T08:52:37.117Z,39.60
2019-04-21T08:53:27.746Z,38.90
2019-04-21T08:54:28.018Z,38.49
2019-04-21T08:55:30.324Z,38.48
2019-04-21T08:56:40.913Z,38.28
2019-04-21T08:57:33.705Z,38.88
2019-04-21T08:58:35.669Z,38.60
2019-04-21T08:59:45.886Z,38.68
2019-04-21T09:00:26.349Z,38.58
2019-04-21T09:01:32.999Z,38.28
2019-04-21T09:02:29.729Z,38.58
2019-04-21T09:03:33.445Z,38.98
2019-04-21T09:04:23.425Z,38.06
2019-04-21T09:05:23.408Z,38.16
2019-04-21T09:06:31.709Z,38.66
2019-04-21T09:07:40.908Z,37.65
2019-04-21T09:08:25.120Z,37.65
2019-04-21T09:09:22.381Z,38.04
2019-04-21T09:10:23.536Z,39.25
2019-04-21T09:11:25.216Z,38.14
2019-04-21T09:12:22.952Z,37.63
2019-04-21T09:13:24.742Z,37.42
2019-04-21T09:14:24.076Z,37.52
2019-04-21T09:15:25.227Z,37.62
2019-04-21T09:16:22.235Z,36.92
2019-04-21T09:17:20.649Z,36.52
2019-04-21T09:18:18.831Z,37.82
2019-04-21T09:19:35.376Z,37.80
2019-04-21T09:20:33.819Z,35.51
2019-04-21T09:21:27.626Z,36.10
2019-04-21T09:22:24.467Z,36.90
2019-04-21T09:23:19.418Z,37.50
2019-04-21T09:24:26.457Z,35.89
2019-04-21T09:25:26.946Z,35.88
2019-04-21T09:26:26.392Z,36.30
2019-04-21T09:27:23.220Z,34.59
2019-04-21T09:28:19.889Z,34.58
2019-04-21T09:29:16.652Z,34.58
2019-04-21T09:30:06.958Z,35.98
2019-04-21T09:31:05.328Z,35.78
2019-04-21T09:32:09.630Z,35.08
2019-04-21T09:33:05.631Z,34.58
2019-04-21T09:34:06.526Z,35.36
2019-04-21T09:35:10.248Z,34.08
2019-04-21T09:36:09.625Z,34.16
2019-04-21T09:37:20.352Z,33.46
2019-04-21T09:38:17.122Z,34.86
2019-04-21T09:39:11.272Z,34.46
2019-04-21T09:40:05.038Z,34.56
2019-04-21T09:41:06.784Z,33.66
2019-04-21T09:42:06.538Z,34.26
2019-04-21T09:43:08.490Z,34.76
2019-04-21T09:44:07.834Z,35.16
2019-04-21T09:45:07.942Z,35.14
2019-04-21T09:46:04.015Z,35.05
2019-04-21T09:47:06.795Z,34.74
2019-04-21T09:48:09.950Z,35.14
2019-04-21T09:49:09.508Z,34.74
2019-04-21T09:50:06.573Z,33.84
2019-04-21T09:51:04.032Z,33.43
2019-04-21T09:52:08.973Z,33.93
2019-04-21T09:53:15.803Z,33.43
2019-04-21T09:54:11.621Z,33.83
2019-04-21T09:55:13.380Z,33.43
2019-04-21T09:56:08.802Z,33.43
2019-04-21T09:57:10.589Z,34.23
2019-04-21T09:58:16.111Z,34.33
2019-04-21T09:59:13.280Z,33.53
2019-04-21T10:00:12.511Z,33.51
2019-04-21T10:01:15.879Z,33.53
2019-04-21T10:02:13.628Z,32.62
2019-04-21T10:03:08.753Z,32.91
2019-04-21T10:04:05.810Z,33.03
2019-04-21T10:05:03.691Z,34.11
2019-04-21T10:06:04.453Z,33.91
2019-04-21T10:07:04.580Z,33.51
2019-04-21T10:08:03.732Z,34.11
2019-04-21T10:09:05.917Z,34.31
2019-04-21T10:10:03.869Z,32.61
2019-04-21T10:11:03.659Z,32.51
2019-04-21T10:12:03.652Z,34.21
2019-04-21T10:13:04.957Z,33.41
2019-04-21T10:14:03.592Z,32.81
2019-04-21T10:15:04.279Z,33.41
2019-04-21T10:16:03.578Z,33.39
2019-04-21T10:17:04.688Z,34.00
2019-04-21T10:18:03.584Z,33.39
2019-04-21T10:19:04.637Z,33.80
2019-04-21T10:20:03.525Z,32.50
2019-04-21T10:21:03.507Z,33.50
2019-04-21T10:22:05.594Z,33.39
2019-04-21T10:23:03.487Z,33.38
2019-04-21T10:24:04.158Z,33.18
2019-04-21T10:25:04.631Z,34.28
2019-04-21T10:26:04.255Z,33.98
2019-04-21T10:27:05.252Z,33.38
2019-04-21T10:28:03.433Z,33.38
2019-04-21T10:29:12.837Z,32.98
2019-04-21T10:30:05.448Z,33.28
2019-04-21T10:31:04.731Z,33.58
2019-04-21T10:32:03.643Z,32.88
2019-04-21T10:33:04.015Z,33.48
2019-04-21T10:34:03.367Z,32.46
2019-04-21T10:35:03.362Z,33.16
2019-04-21T10:36:04.581Z,31.26
2019-04-21T10:37:03.333Z,31.16
2019-04-21T10:38:16.997Z,32.76
2019-04-21T10:39:04.355Z,33.16
2019-04-21T10:40:03.591Z,32.56
2019-04-21T10:41:03.558Z,32.67
2019-04-21T10:42:03.579Z,32.86
2019-04-21T10:43:03.897Z,31.26
2019-04-21T10:44:03.289Z,31.87
2019-04-21T10:45:03.397Z,32.76
2019-04-21T10:46:04.395Z,32.67
2019-04-21T10:47:04.679Z,31.67
2019-04-21T10:48:03.207Z,32.76
2019-04-21T10:49:04.351Z,32.67
2019-04-21T10:50:04.469Z,32.67
2019-04-21T10:51:03.279Z,32.67
2019-04-21T10:52:03.161Z,32.76
2019-04-21T10:53:03.159Z,32.76
2019-04-21T10:54:04.062Z,32.86
2019-04-21T10:55:18.125Z,33.26
2019-04-21T10:56:15.415Z,33.36
2019-04-21T10:57:04.307Z,33.15
2019-04-21T10:58:04.400Z,32.55
2019-04-21T10:59:04.427Z,32.65
2019-04-21T11:00:04.472Z,31.65
2019-04-21T11:01:04.191Z,31.65
2019-04-21T11:02:03.184Z,31.95
2019-04-21T11:03:04.409Z,31.55
2019-04-21T11:04:03.101Z,31.25
2019-04-21T11:05:03.045Z,31.35
2019-04-21T11:06:03.325Z,32.15
2019-04-21T11:07:06.683Z,31.35
2019-04-21T11:08:14.840Z,32.43
2019-04-21T11:09:05.485Z,31.43
2019-04-21T11:10:04.380Z,31.24
2019-04-21T11:11:03.773Z,31.84
2019-04-21T11:12:04.097Z,28.74
2019-04-21T11:13:02.956Z,29.54
2019-04-21T11:14:04.259Z,31.54
2019-04-21T11:15:03.292Z,31.54
2019-04-21T11:16:03.398Z,31.04
2019-04-21T11:17:04.006Z,31.13
2019-04-21T11:18:03.987Z,31.54
2019-04-21T11:19:04.047Z,31.13
2019-04-21T11:20:02.853Z,31.54
2019-04-21T11:21:03.103Z,31.34
2019-04-21T11:22:03.009Z,30.83
2019-04-21T11:23:02.891Z,30.93
2019-04-21T11:24:03.960Z,31.34
2019-04-21T11:25:03.112Z,30.54
2019-04-21T11:26:04.267Z,30.74
2019-04-21T11:27:02.778Z,29.84
2019-04-21T11:28:02.985Z,29.34
2019-04-21T11:29:03.188Z,29.43
2019-04-21T11:30:02.742Z,30.82
2019-04-21T11:31:02.741Z,31.02
2019-04-21T11:32:03.052Z,30.32
2019-04-21T11:33:03.555Z,30.12
2019-04-21T11:34:03.017Z,29.72
2019-04-21T11:35:03.348Z,30.82
2019-04-21T11:36:03.586Z,30.44
2019-04-21T11:37:03.860Z,30.52
2019-04-21T11:38:08.391Z,29.52
2019-04-21T11:39:19.371Z,28.12
2019-04-21T11:40:09.155Z,28.54
2019-04-21T11:41:03.621Z,30.12
2019-04-21T11:42:03.744Z,28.42
2019-04-21T11:43:03.864Z,26.83
2019-04-21T11:44:03.428Z,26.93
2019-04-21T11:45:04.043Z,27.43
2019-04-21T11:46:02.656Z,28.42
2019-04-21T11:47:02.661Z,27.03
2019-04-21T11:48:03.932Z,26.93
2019-04-21T11:49:02.535Z,27.13
2019-04-21T11:50:03.358Z,26.83
2019-04-21T11:51:02.514Z,28.12
2019-04-21T11:52:02.952Z,28.92
2019-04-21T11:53:03.160Z,28.83
2019-04-21T11:54:02.520Z,28.03
2019-04-21T11:55:04.652Z,26.83
2019-04-21T11:56:02.874Z,26.73
2019-04-21T11:57:11.836Z,27.53
2019-04-21T11:58:03.597Z,27.53
2019-04-21T11:59:03.732Z,28.12
2019-04-21T12:00:03.812Z,27.83
2019-04-21T12:01:03.454Z,27.12
2019-04-21T12:02:03.531Z,28.42
2019-04-21T12:03:03.683Z,28.23
2019-04-21T12:04:03.408Z,28.91
2019-04-21T12:05:03.504Z,29.31
2019-04-21T12:06:03.558Z,28.71
2019-04-21T12:07:02.332Z,26.82
2019-04-21T12:08:02.347Z,27.22
2019-04-21T12:09:04.571Z,27.62
2019-04-21T12:10:03.702Z,26.32
2019-04-21T12:11:03.240Z,26.52
2019-04-21T12:12:03.395Z,26.90
2019-04-21T12:13:05.555Z,27.02
2019-04-21T12:14:03.776Z,26.31
2019-04-21T12:15:02.248Z,26.21
2019-04-21T12:16:03.165Z,26.31
2019-04-21T12:17:02.682Z,27.40
2019-04-21T12:18:02.214Z,27.20
2019-04-21T12:19:03.025Z,27.00
2019-04-21T12:20:03.287Z,26.90
2019-04-21T12:21:03.268Z,25.61
2019-04-21T12:22:11.008Z,27.00
2019-04-21T12:23:04.560Z,27.00
2019-04-21T12:24:02.688Z,25.61
2019-04-21T12:25:03.042Z,25.50
2019-04-21T12:26:03.140Z,25.60
2019-04-21T12:27:02.330Z,24.20
2019-04-21T12:28:02.122Z,24.09
2019-04-21T12:29:02.113Z,24.08
2019-04-21T12:30:02.180Z,23.07
2019-04-21T12:31:03.259Z,24.74
2019-04-21T12:32:03.423Z,22.44
2019-04-21T12:33:02.299Z,21.31
2019-04-21T12:34:02.050Z,21.59
2019-04-21T12:35:02.029Z,21.46
2019-04-21T12:36:02.051Z,21.53
2019-04-21T12:37:02.022Z,19.44
2019-04-21T12:38:02.783Z,20.12
2019-04-21T12:39:04.864Z,19.81
2019-04-21T12:40:03.264Z,20.00
2019-04-21T12:41:02.417Z,18.80
2019-04-21T12:42:02.635Z,18.79
2019-04-21T12:43:02.922Z,19.08
2019-04-21T12:44:02.533Z,18.77
2019-04-21T12:45:01.994Z,17.98
2019-04-21T12:46:02.209Z,18.08
2019-04-21T12:47:01.890Z,17.88
2019-04-21T12:48:02.206Z,18.16
2019-04-21T12:49:02.217Z,17.57
2019-04-21T12:50:02.747Z,17.76
2019-04-21T12:51:03.807Z,17.66
2019-04-21T12:52:02.033Z,17.65
2019-04-21T12:53:03.206Z,18.04
2019-04-21T12:54:01.823Z,17.35
2019-04-21T12:55:01.890Z,17.14
2019-04-21T12:56:02.200Z,16.16
2019-04-21T12:57:01.790Z,16.83
2019-04-21T12:58:01.780Z,16.83
2019-04-21T12:59:01.864Z,17.41
2019-04-21T13:00:02.907Z,16.05
2019-04-21T13:01:02.949Z,15.45
2019-04-21T13:02:03.192Z,16.64
2019-04-21T13:03:01.792Z,16.34
2019-04-21T13:04:01.896Z,16.15
2019-04-21T13:05:02.129Z,16.35
2019-04-21T13:06:01.699Z,16.64
2019-04-21T13:07:01.703Z,16.35
2019-04-21T13:08:01.706Z,16.64
2019-04-21T13:09:05.822Z,17.52
2019-04-21T13:10:04.264Z,16.93
2019-04-21T13:11:02.278Z,16.94
2019-04-21T13:12:01.638Z,16.85
2019-04-21T13:13:01.813Z,16.75
2019-04-21T13:14:01.894Z,16.16
2019-04-21T13:15:04.035Z,17.73
2019-04-21T13:16:01.635Z,17.83
2019-04-21T13:17:01.590Z,16.36
2019-04-21T13:18:02.677Z,16.27
2019-04-21T13:19:02.937Z,16.46
2019-04-21T13:20:01.568Z,15.67
2019-04-21T13:21:02.708Z,14.79
2019-04-21T13:22:01.714Z,15.87
2019-04-21T13:23:01.909Z,17.72
2019-04-21T13:24:01.517Z,17.24
2019-04-21T13:25:02.369Z,15.97
2019-04-21T13:26:04.149Z,17.44
2019-04-21T13:27:03.244Z,16.57
2019-04-21T13:28:02.774Z,16.39
2019-04-21T13:29:02.589Z,16.78
2019-04-21T13:30:02.211Z,17.59
2019-04-21T13:31:02.299Z,17.88
2019-04-21T13:32:03.709Z,18.88
2019-04-21T13:33:02.934Z,18.00
2019-04-21T13:34:02.161Z,19.18
2019-04-21T13:35:01.424Z,17.71
2019-04-21T13:36:02.831Z,20.07
2019-04-21T13:37:01.590Z,20.09
2019-04-21T13:38:02.672Z,20.17
2019-04-21T13:39:33.083Z,20.67
2019-04-21T13:40:24.852Z,19.98
2019-04-21T13:41:18.954Z,20.48
2019-04-21T13:42:11.049Z,19.69
2019-04-21T13:43:05.798Z,20.09
2019-04-21T13:44:01.316Z,20.19
2019-04-21T13:45:03.003Z,19.90
2019-04-21T13:46:01.860Z,20.50
2019-04-21T13:47:02.641Z,20.41
2019-04-21T13:48:01.287Z,21.10
2019-04-21T13:49:01.255Z,19.73
2019-04-21T13:50:03.146Z,20.72
2019-04-21T13:51:01.561Z,21.71
2019-04-21T13:52:02.545Z,21.90
2019-04-21T13:53:02.694Z,22.41
2019-04-21T13:54:01.961Z,21.50
2019-04-21T13:55:01.362Z,22.09
2019-04-21T13:56:02.612Z,20.31
2019-04-21T13:57:02.688Z,20.51
2019-04-21T13:58:02.113Z,20.90
2019-04-21T13:59:02.266Z,21.98
2019-04-21T14:00:01.441Z,22.19